createdAt,value
2023-05-14T00:00:29.467Z,26.00
2023-05-14T00:02:36.400Z,26.00
2023-05-14T00:04:43.679Z,26.00
2023-05-14T00:06:50.653Z,26.00
2023-05-14T00:08:58.399Z,26.00
2023-05-14T00:11:05.271Z,26.10
2023-05-14T00:13:12.405Z,26.00
2023-05-14T00:15:19.227Z,26.00
2023-05-14T00:17:28.178Z,26.10
2023-05-14T00:19:34.974Z,26.00
2023-05-14T00:21:42.310Z,26.10
2023-05-14T00:23:49.132Z,26.10
2023-05-14T00:25:56.167Z,26.20
2023-05-14T00:28:02.881Z,26.30
2023-05-14T00:30:10.934Z,26.30
2023-05-14T00:32:17.770Z,26.30
2023-05-14T00:34:26.533Z,26.40
2023-05-14T00:36:34.015Z,26.40
2023-05-14T00:38:40.845Z,26.50
2023-05-14T00:40:52.266Z,26.50
2023-05-14T00:42:59.659Z,26.50
2023-05-14T00:45:07.100Z,26.50
2023-05-14T00:47:13.973Z,26.50
2023-05-14T00:49:22.181Z,26.60
2023-05-14T00:51:30.890Z,26.70
2023-05-14T00:53:38.848Z,26.80
2023-05-14T00:55:46.431Z,26.90
2023-05-14T00:57:56.429Z,27.00
2023-05-14T01:00:04.287Z,27.00
2023-05-14T01:02:11.468Z,27.00
2023-05-14T01:04:18.694Z,27.00
2023-05-14T01:06:34.988Z,26.90
2023-05-14T01:08:52.462Z,26.90
2023-05-14T01:11:06.809Z,26.90
2023-05-14T01:13:22.081Z,26.90
2023-05-14T01:15:33.154Z,26.80
2023-05-14T01:17:45.008Z,26.90
2023-05-14T01:19:54.375Z,26.80
2023-05-14T01:22:02.943Z,26.90
2023-05-14T01:24:10.943Z,26.90
2023-05-14T01:26:18.021Z,26.90
2023-05-14T01:28:30.883Z,27.00
2023-05-14T01:30:40.675Z,27.10
2023-05-14T01:32:51.502Z,27.20
2023-05-14T01:35:01.443Z,27.30
2023-05-14T01:37:14.716Z,27.30
2023-05-14T01:39:22.081Z,27.30
2023-05-14T01:41:29.777Z,27.30
2023-05-14T01:43:38.267Z,27.30
2023-05-14T01:45:46.692Z,27.30
2023-05-14T01:47:53.828Z,27.40
2023-05-14T01:50:00.964Z,27.40
2023-05-14T01:52:10.775Z,27.50
2023-05-14T01:54:17.950Z,27.50
2023-05-14T01:56:26.564Z,27.50
2023-05-14T01:58:33.752Z,27.60
2023-05-14T02:00:40.775Z,27.60
2023-05-14T02:02:47.985Z,27.60
2023-05-14T02:04:56.110Z,27.60
2023-05-14T02:07:04.580Z,27.70
2023-05-14T02:09:13.071Z,27.80
2023-05-14T02:11:20.490Z,27.90
2023-05-14T02:13:27.862Z,28.10
2023-05-14T02:15:35.568Z,28.10
2023-05-14T02:17:42.864Z,28.20
2023-05-14T02:19:50.793Z,28.30
2023-05-14T02:21:57.715Z,28.20
2023-05-14T02:24:05.000Z,28.20
2023-05-14T02:26:13.769Z,28.10
2023-05-14T02:28:20.744Z,28.10
2023-05-14T02:30:27.720Z,28.10
2023-05-14T02:32:34.955Z,28.30
2023-05-14T02:34:41.941Z,28.30
2023-05-14T02:36:49.114Z,28.50
2023-05-14T02:38:55.932Z,28.60
2023-05-14T02:41:03.072Z,28.60
2023-05-14T02:43:11.576Z,28.70
2023-05-14T02:45:18.808Z,28.80
2023-05-14T02:47:25.765Z,28.90
2023-05-14T02:49:33.027Z,28.90
2023-05-14T02:51:39.949Z,28.80
2023-05-14T02:53:47.332Z,28.80
2023-05-14T02:55:54.262Z,28.80
2023-05-14T02:58:01.704Z,28.80
2023-05-14T03:00:11.798Z,28.70
2023-05-14T03:02:19.520Z,28.50
2023-05-14T03:04:27.087Z,28.50
2023-05-14T03:06:34.368Z,28.50
2023-05-14T03:08:41.138Z,28.50
2023-05-14T03:10:48.217Z,28.50
2023-05-14T03:12:55.099Z,28.50
2023-05-14T03:15:02.156Z,28.50
2023-05-14T03:17:10.967Z,28.60
2023-05-14T03:19:19.147Z,28.80
2023-05-14T03:21:26.197Z,29.00
2023-05-14T03:23:35.978Z,29.00
2023-05-14T03:25:42.795Z,29.00
2023-05-14T03:27:49.981Z,29.10
2023-05-14T03:29:56.954Z,29.30
2023-05-14T03:32:04.129Z,29.40
2023-05-14T03:34:12.796Z,29.60
2023-05-14T03:36:19.982Z,29.70
2023-05-14T03:38:27.523Z,29.80
2023-05-14T03:40:34.955Z,29.80
2023-05-14T03:42:41.830Z,29.80
2023-05-14T03:44:50.344Z,30.00
2023-05-14T03:46:57.216Z,30.10
2023-05-14T03:49:04.477Z,30.10
2023-05-14T03:51:13.279Z,30.10
2023-05-14T03:53:20.712Z,29.90
2023-05-14T03:55:28.099Z,29.80
2023-05-14T03:57:34.864Z,29.70
2023-05-14T03:59:42.609Z,29.60
2023-05-14T04:01:49.434Z,29.60
2023-05-14T04:03:56.789Z,29.60
2023-05-14T04:06:04.001Z,29.70
2023-05-14T04:08:12.823Z,29.90
2023-05-14T04:10:19.806Z,30.00
2023-05-14T04:12:27.750Z,30.20
2023-05-14T04:14:34.607Z,30.30
2023-05-14T04:16:43.039Z,30.40
2023-05-14T04:18:50.609Z,30.50
2023-05-14T04:20:57.892Z,30.60
2023-05-14T04:23:05.045Z,30.70
2023-05-14T04:25:14.681Z,30.80
2023-05-14T04:27:24.682Z,30.90
2023-05-14T04:29:31.862Z,31.00
2023-05-14T04:31:39.465Z,31.10
2023-05-14T04:33:46.679Z,31.00
2023-05-14T04:35:53.619Z,31.10
2023-05-14T04:38:00.665Z,31.20
2023-05-14T04:40:08.134Z,31.30
2023-05-14T04:42:17.097Z,31.30
2023-05-14T04:44:23.815Z,31.20
2023-05-14T04:46:31.060Z,31.20
2023-05-14T04:48:38.132Z,31.30
2023-05-14T04:50:45.261Z,31.30
2023-05-14T04:52:52.137Z,31.30
2023-05-14T04:54:59.259Z,31.30
2023-05-14T04:57:06.027Z,31.50
2023-05-14T04:59:14.803Z,31.60
2023-05-14T05:01:22.120Z,31.70
2023-05-14T05:03:29.487Z,31.70
2023-05-14T05:05:36.466Z,31.60
2023-05-14T05:07:43.536Z,31.50
2023-05-14T05:09:50.366Z,31.40
2023-05-14T05:11:57.489Z,31.20
2023-05-14T05:14:04.481Z,31.10
2023-05-14T05:16:13.295Z,31.00
2023-05-14T05:18:20.174Z,31.10
2023-05-14T05:20:29.080Z,31.20
2023-05-14T05:22:36.007Z,31.30
2023-05-14T05:24:43.039Z,31.30
2023-05-14T05:26:51.241Z,31.40
2023-05-14T05:28:58.730Z,31.50
2023-05-14T05:31:05.616Z,31.50
2023-05-14T05:33:14.478Z,31.60
2023-05-14T05:35:22.127Z,31.70
2023-05-14T05:37:29.095Z,31.80
2023-05-14T05:39:36.229Z,31.90
2023-05-14T05:41:43.674Z,31.80
2023-05-14T05:43:50.944Z,31.90
2023-05-14T05:45:57.924Z,32.00
2023-05-14T05:48:05.123Z,32.10
2023-05-14T05:50:14.792Z,32.30
2023-05-14T05:52:21.975Z,32.40
2023-05-14T05:54:28.950Z,32.50
2023-05-14T05:56:35.980Z,32.40
2023-05-14T05:58:43.076Z,32.20
2023-05-14T06:00:50.547Z,32.00
2023-05-14T06:02:57.386Z,31.80
2023-05-14T06:05:04.733Z,31.70
2023-05-14T06:07:13.420Z,31.50
2023-05-14T06:09:20.605Z,31.40
2023-05-14T06:11:27.735Z,31.40
2023-05-14T06:13:34.854Z,31.40
2023-05-14T06:15:41.699Z,31.30
2023-05-14T06:17:48.920Z,31.30
2023-05-14T06:19:56.055Z,31.30
2023-05-14T06:22:03.096Z,31.20
2023-05-14T06:24:12.311Z,31.10
2023-05-14T06:26:19.751Z,31.30
2023-05-14T06:28:26.585Z,31.50
2023-05-14T06:30:33.504Z,31.80
2023-05-14T06:32:40.456Z,31.90
2023-05-14T06:34:47.677Z,32.10
2023-05-14T06:36:54.479Z,32.30
2023-05-14T06:39:01.712Z,32.40
2023-05-14T06:41:10.273Z,32.50
2023-05-14T06:43:17.558Z,32.60
2023-05-14T06:45:24.430Z,32.70
2023-05-14T06:47:31.650Z,32.80
2023-05-14T06:49:38.853Z,32.90
2023-05-14T06:51:45.791Z,33.00
2023-05-14T06:53:53.617Z,33.00
2023-05-14T06:56:00.597Z,32.90
2023-05-14T06:58:10.548Z,33.00
2023-05-14T07:00:18.702Z,33.00
2023-05-14T07:02:26.014Z,33.10
2023-05-14T07:04:33.199Z,33.10
2023-05-14T07:06:40.445Z,33.20
2023-05-14T07:08:48.602Z,33.30
2023-05-14T07:10:55.883Z,33.30
2023-05-14T07:13:02.817Z,33.40
2023-05-14T07:15:13.304Z,33.30
2023-05-14T07:17:20.590Z,33.30
2023-05-14T07:19:29.745Z,33.40
2023-05-14T07:21:36.792Z,33.40
2023-05-14T07:23:43.635Z,33.40
2023-05-14T07:25:50.761Z,33.50
2023-05-14T07:27:57.533Z,33.60
2023-05-14T07:30:04.495Z,33.60
2023-05-14T07:32:15.425Z,33.70
2023-05-14T07:34:22.245Z,33.60
2023-05-14T07:36:29.132Z,33.40
2023-05-14T07:38:36.559Z,33.30
2023-05-14T07:40:43.537Z,33.40
2023-05-14T07:42:50.626Z,33.50
2023-05-14T07:44:57.446Z,33.40
2023-05-14T07:47:05.206Z,33.50
2023-05-14T07:49:13.808Z,33.50
2023-05-14T07:51:20.987Z,33.50
2023-05-14T07:53:28.425Z,33.40
2023-05-14T07:55:35.553Z,33.30
2023-05-14T07:57:42.995Z,33.10
2023-05-14T07:59:50.635Z,33.10
2023-05-14T08:01:57.823Z,33.10
2023-05-14T08:04:05.103Z,33.10
2023-05-14T08:06:13.567Z,33.10
2023-05-14T08:08:20.592Z,33.10
2023-05-14T08:10:27.956Z,33.10
2023-05-14T08:12:35.363Z,33.10
2023-05-14T08:14:42.217Z,33.20
2023-05-14T08:16:49.636Z,33.20
2023-05-14T08:18:58.851Z,33.20
2023-05-14T08:21:05.940Z,33.30
2023-05-14T08:23:14.455Z,33.30
2023-05-14T08:25:21.783Z,33.30
2023-05-14T08:27:28.669Z,33.30
2023-05-14T08:29:35.842Z,33.10
2023-05-14T08:31:43.867Z,33.10
2023-05-14T08:33:51.177Z,33.10
2023-05-14T08:35:59.280Z,33.20
2023-05-14T08:38:06.567Z,33.30
2023-05-14T08:40:16.106Z,33.40
2023-05-14T08:42:27.176Z,33.50
2023-05-14T08:44:39.377Z,33.50
2023-05-14T08:46:47.236Z,33.60
2023-05-14T08:49:01.054Z,33.60
2023-05-14T08:51:09.827Z,33.70
2023-05-14T08:53:17.160Z,33.70
2023-05-14T08:55:27.160Z,33.70
2023-05-14T08:57:35.516Z,33.70
2023-05-14T08:59:42.499Z,33.60
2023-05-14T09:01:51.712Z,33.50
2023-05-14T09:03:59.633Z,33.40
2023-05-14T09:06:08.031Z,33.30
2023-05-14T09:08:15.312Z,33.20
2023-05-14T09:10:22.814Z,33.00
2023-05-14T09:12:32.236Z,32.90
2023-05-14T09:14:39.160Z,32.80
2023-05-14T09:16:49.537Z,32.70
2023-05-14T09:18:56.575Z,32.60
2023-05-14T09:21:04.712Z,32.50
2023-05-14T09:23:11.525Z,32.50
2023-05-14T09:25:18.706Z,32.50
2023-05-14T09:27:26.968Z,32.50
2023-05-14T09:29:36.090Z,32.40
2023-05-14T09:31:43.115Z,32.50
2023-05-14T09:33:54.172Z,32.50
2023-05-14T09:36:03.277Z,32.50
2023-05-14T09:38:10.858Z,32.60
2023-05-14T09:40:19.073Z,32.70
2023-05-14T09:42:26.348Z,32.60
2023-05-14T09:44:35.020Z,32.60
2023-05-14T09:46:42.178Z,32.60
2023-05-14T09:48:50.203Z,32.60
2023-05-14T09:50:57.325Z,32.50
2023-05-14T09:53:04.870Z,32.50
2023-05-14T09:55:12.714Z,32.50
2023-05-14T09:57:19.593Z,32.50
2023-05-14T09:59:26.717Z,32.40
2023-05-14T10:01:35.726Z,32.40
2023-05-14T10:03:43.743Z,32.40
2023-05-14T10:05:53.851Z,32.30
2023-05-14T10:08:02.722Z,32.30
2023-05-14T10:10:13.638Z,32.30
2023-05-14T10:12:23.327Z,32.30
2023-05-14T10:14:36.451Z,32.30
2023-05-14T10:16:50.070Z,32.30
2023-05-14T10:19:03.841Z,32.20
2023-05-14T10:21:11.361Z,32.10
2023-05-14T10:23:18.278Z,32.10
2023-05-14T10:25:26.179Z,32.10
2023-05-14T10:27:33.069Z,32.00
2023-05-14T10:29:41.104Z,32.00
2023-05-14T10:31:55.594Z,32.00
2023-05-14T10:34:02.738Z,32.00
2023-05-14T10:36:10.801Z,32.10
2023-05-14T10:38:19.505Z,32.10
2023-05-14T10:40:27.657Z,32.10
2023-05-14T10:42:38.580Z,32.10
2023-05-14T10:44:55.171Z,32.00
2023-05-14T10:47:04.311Z,32.00
2023-05-14T10:49:11.288Z,32.10
2023-05-14T10:51:21.822Z,32.10
2023-05-14T10:53:37.169Z,32.00
2023-05-14T10:55:45.426Z,32.00
2023-05-14T10:57:53.275Z,32.00
2023-05-14T11:00:01.413Z,32.00
2023-05-14T11:02:26.659Z,32.00
2023-05-14T11:04:34.788Z,32.00
2023-05-14T11:06:43.044Z,32.00
2023-05-14T11:08:50.482Z,32.00
2023-05-14T11:10:58.795Z,32.00
2023-05-14T11:13:05.974Z,31.90
2023-05-14T11:15:14.852Z,31.90
2023-05-14T11:17:24.017Z,31.90
2023-05-14T11:19:30.846Z,31.80
2023-05-14T11:21:38.084Z,31.80
2023-05-14T11:23:45.008Z,31.80
2023-05-14T11:25:52.574Z,31.70
2023-05-14T11:28:01.825Z,31.70
2023-05-14T11:30:15.408Z,31.60
2023-05-14T11:32:24.128Z,31.40
2023-05-14T11:34:31.767Z,31.20
2023-05-14T11:36:40.842Z,31.00
2023-05-14T11:38:53.152Z,30.90
2023-05-14T11:41:01.666Z,30.80
2023-05-14T11:43:09.410Z,30.60
2023-05-14T11:45:17.251Z,30.50
2023-05-14T11:47:26.360Z,30.40
2023-05-14T11:49:33.421Z,30.20
2023-05-14T11:51:40.539Z,30.10
2023-05-14T11:53:48.283Z,30.00
2023-05-14T11:55:56.009Z,30.00
2023-05-14T11:58:03.051Z,29.90
2023-05-14T12:00:14.548Z,29.80
2023-05-14T12:02:23.935Z,29.70
2023-05-14T12:04:33.283Z,29.70
2023-05-14T12:06:42.018Z,29.60
2023-05-14T12:08:52.064Z,29.60
2023-05-14T12:10:59.153Z,29.50
2023-05-14T12:13:11.038Z,29.40
2023-05-14T12:15:19.198Z,29.40
2023-05-14T12:17:27.049Z,29.30
2023-05-14T12:19:35.808Z,29.20
2023-05-14T12:21:43.414Z,29.20
2023-05-14T12:23:50.528Z,29.10
2023-05-14T12:25:57.658Z,29.10
2023-05-14T12:28:05.473Z,29.10
2023-05-14T12:32:24.812Z,29.10
2023-05-14T12:34:32.018Z,29.10
2023-05-14T12:36:40.581Z,29.10
2023-05-14T12:38:48.276Z,29.10
2023-05-14T12:40:55.147Z,29.10
2023-05-14T12:43:02.688Z,29.10
2023-05-14T12:45:10.648Z,29.10
2023-05-14T12:47:18.350Z,29.10
2023-05-14T12:49:25.156Z,29.10
2023-05-14T12:51:32.439Z,29.00
2023-05-14T12:53:41.221Z,29.00
2023-05-14T12:55:48.448Z,29.00
2023-05-14T12:57:55.266Z,28.90
2023-05-14T13:00:02.531Z,29.00
2023-05-14T13:02:09.936Z,29.00
2023-05-14T13:04:17.246Z,29.00
2023-05-14T13:06:24.231Z,28.90
2023-05-14T13:08:31.486Z,28.90
2023-05-14T13:10:40.145Z,28.80
2023-05-14T13:12:47.327Z,28.80
2023-05-14T13:14:54.238Z,28.80
2023-05-14T13:17:01.604Z,28.80
2023-05-14T13:19:08.507Z,28.80
2023-05-14T13:21:15.798Z,28.80
2023-05-14T13:23:22.571Z,28.80
2023-05-14T13:25:30.321Z,28.70
2023-05-14T13:27:38.838Z,28.70
2023-05-14T13:29:45.969Z,28.70
2023-05-14T13:31:52.784Z,28.70
2023-05-14T13:34:00.785Z,28.70
2023-05-14T13:36:08.485Z,28.60
2023-05-14T13:38:15.554Z,28.50
2023-05-14T13:40:22.535Z,28.50
2023-05-14T13:42:29.871Z,28.40
2023-05-14T13:44:38.773Z,28.40
2023-05-14T13:46:46.414Z,28.40
2023-05-14T13:48:53.410Z,28.40
2023-05-14T13:51:00.411Z,28.30
2023-05-14T13:53:07.258Z,28.30
2023-05-14T13:55:14.347Z,28.30
2023-05-14T13:57:21.217Z,28.30
2023-05-14T13:59:28.856Z,28.30
2023-05-14T14:01:37.522Z,28.20
2023-05-14T14:03:44.709Z,28.30
2023-05-14T14:05:53.134Z,28.20
2023-05-14T14:08:04.602Z,28.20
2023-05-14T14:10:20.128Z,28.20
2023-05-14T14:12:27.664Z,28.10
2023-05-14T14:14:34.597Z,28.20
2023-05-14T14:16:43.296Z,28.10
2023-05-14T14:18:50.392Z,28.20
2023-05-14T14:20:57.370Z,28.10
2023-05-14T14:23:04.498Z,28.10
2023-05-14T14:25:13.263Z,28.10
2023-05-14T14:27:20.639Z,28.10
2023-05-14T14:29:27.630Z,28.10
2023-05-14T14:31:34.893Z,28.10
2023-05-14T14:33:43.942Z,28.10
2023-05-14T14:35:51.272Z,28.10
2023-05-14T14:37:58.150Z,28.10
2023-05-14T14:40:06.405Z,28.00
2023-05-14T14:42:13.285Z,28.00
2023-05-14T14:44:20.567Z,28.10
2023-05-14T14:46:27.664Z,28.10
2023-05-14T14:48:38.510Z,28.00
2023-05-14T14:50:47.091Z,28.00
2023-05-14T14:52:54.205Z,27.90
2023-05-14T14:55:01.054Z,27.90
2023-05-14T14:57:08.519Z,28.00
2023-05-14T14:59:15.650Z,27.90
2023-05-14T15:01:23.786Z,27.90
2023-05-14T15:03:30.713Z,27.90
2023-05-14T15:05:37.914Z,27.90
2023-05-14T15:07:46.429Z,27.90
2023-05-14T15:09:53.557Z,28.00
2023-05-14T15:12:00.690Z,27.90
2023-05-14T15:14:07.817Z,28.00
2023-05-14T15:16:15.177Z,28.00
2023-05-14T15:18:22.338Z,28.00
2023-05-14T15:20:29.211Z,28.00
2023-05-14T15:22:36.355Z,28.00
2023-05-14T15:24:44.864Z,28.10
2023-05-14T15:26:53.307Z,28.10
2023-05-14T15:29:00.815Z,28.00
2023-05-14T15:31:08.673Z,28.00
2023-05-14T15:33:18.800Z,28.00
2023-05-14T15:35:26.249Z,28.00
2023-05-14T15:37:40.670Z,28.00
2023-05-14T15:39:49.506Z,28.10
2023-05-14T15:41:56.281Z,28.10
2023-05-14T15:44:03.626Z,28.10
2023-05-14T15:46:10.583Z,28.10
2023-05-14T15:48:17.977Z,28.10
2023-05-14T15:50:25.458Z,28.10
2023-05-14T15:52:32.650Z,28.10
2023-05-14T15:54:39.521Z,28.20
2023-05-14T15:56:48.442Z,28.20
2023-05-14T15:58:55.351Z,28.20
2023-05-14T16:01:02.551Z,28.20
2023-05-14T16:03:09.728Z,28.20
2023-05-14T16:05:17.896Z,28.20
2023-05-14T16:07:24.868Z,28.30
2023-05-14T16:09:31.872Z,28.20
2023-05-14T16:11:38.923Z,28.20
2023-05-14T16:13:47.739Z,28.20
2023-05-14T16:15:54.614Z,28.20
2023-05-14T16:18:02.807Z,28.20
2023-05-14T16:20:10.650Z,28.20
2023-05-14T16:22:18.000Z,28.20
2023-05-14T16:24:24.768Z,28.20
2023-05-14T16:26:31.902Z,28.20
2023-05-14T16:28:42.138Z,28.30
2023-05-14T16:30:50.876Z,28.20
2023-05-14T16:32:57.688Z,28.20
2023-05-14T16:35:04.786Z,28.20
2023-05-14T16:37:13.129Z,28.20
2023-05-14T16:39:20.424Z,28.20
2023-05-14T16:41:27.496Z,28.20
2023-05-14T16:43:34.627Z,28.20
2023-05-14T16:45:41.345Z,28.20
2023-05-14T16:47:50.252Z,28.20
2023-05-14T16:49:57.039Z,28.10
2023-05-14T16:52:04.066Z,28.10
2023-05-14T16:54:10.955Z,28.10
2023-05-14T16:56:18.117Z,28.10
2023-05-14T16:58:24.939Z,28.00
2023-05-14T17:00:32.019Z,28.00
2023-05-14T17:02:38.907Z,28.00
2023-05-14T17:04:48.085Z,28.00
2023-05-14T17:06:55.059Z,27.90
2023-05-14T17:09:02.379Z,27.90
2023-05-14T17:11:09.258Z,27.90
2023-05-14T17:13:16.494Z,27.90
2023-05-14T17:15:23.827Z,27.90
2023-05-14T17:17:31.118Z,27.90
2023-05-14T17:19:37.969Z,27.90
2023-05-14T17:21:46.752Z,27.90
2023-05-14T17:23:53.577Z,27.80
2023-05-14T17:26:00.782Z,27.80
2023-05-14T17:28:07.798Z,27.80
2023-05-14T17:30:16.094Z,27.80
2023-05-14T17:32:23.138Z,27.80
2023-05-14T17:34:30.104Z,27.80
2023-05-14T17:36:37.542Z,27.70
2023-05-14T17:38:46.198Z,27.70
2023-05-14T17:40:53.451Z,27.70
2023-05-14T17:43:00.254Z,27.70
2023-05-14T17:45:07.797Z,27.70
2023-05-14T17:47:14.876Z,27.60
2023-05-14T17:49:22.069Z,27.60
2023-05-14T17:51:28.886Z,27.50
2023-05-14T17:53:35.870Z,27.50
2023-05-14T17:55:45.097Z,27.50
2023-05-14T17:57:52.331Z,27.50
2023-05-14T17:59:59.050Z,27.50
2023-05-14T18:02:06.698Z,27.50
2023-05-14T18:04:13.606Z,27.40
2023-05-14T18:06:20.949Z,27.40
2023-05-14T18:08:27.740Z,27.40
2023-05-14T18:10:34.808Z,27.40
2023-05-14T18:12:43.638Z,27.30
2023-05-14T18:14:50.573Z,27.20
2023-05-14T18:16:58.167Z,27.20
2023-05-14T18:19:05.207Z,27.10
2023-05-14T18:21:12.367Z,27.00
2023-05-14T18:23:20.412Z,27.00
2023-05-14T18:25:28.011Z,27.00
2023-05-14T18:27:34.885Z,27.00
2023-05-14T18:29:43.701Z,27.00
2023-05-14T18:31:50.420Z,27.00
2023-05-14T18:33:57.652Z,26.90
2023-05-14T18:36:05.043Z,27.00
2023-05-14T18:38:12.889Z,26.90
2023-05-14T18:40:19.661Z,26.90
2023-05-14T18:42:26.739Z,26.90
2023-05-14T18:44:33.661Z,26.90
2023-05-14T18:46:42.569Z,26.90
2023-05-14T18:48:49.564Z,26.90
2023-05-14T18:50:57.052Z,26.80
2023-05-14T18:53:04.028Z,26.80
2023-05-14T18:55:12.034Z,26.90
2023-05-14T18:57:18.904Z,26.90
2023-05-14T18:59:26.034Z,26.90
2023-05-14T19:01:32.962Z,26.90
2023-05-14T19:03:43.069Z,26.80
2023-05-14T19:05:51.636Z,26.90
2023-05-14T19:07:59.578Z,26.90
2023-05-14T19:10:06.559Z,26.80
2023-05-14T19:12:13.744Z,26.80
2023-05-14T19:14:20.537Z,26.80
2023-05-14T19:16:27.768Z,26.80
2023-05-14T19:18:34.739Z,26.70
2023-05-14T19:20:43.684Z,26.60
2023-05-14T19:22:50.558Z,26.60
2023-05-14T19:24:57.743Z,26.50
2023-05-14T19:27:05.024Z,26.50
2023-05-14T19:29:12.210Z,26.50
2023-05-14T19:31:19.206Z,26.50
2023-05-14T19:33:26.988Z,26.60
2023-05-14T19:35:34.008Z,26.60
2023-05-14T19:37:42.811Z,26.60
2023-05-14T19:39:50.164Z,26.60
2023-05-14T19:41:57.343Z,26.60
2023-05-14T19:44:04.581Z,26.60
2023-05-14T19:46:11.818Z,26.70
2023-05-14T19:48:20.223Z,26.70
2023-05-14T19:50:27.352Z,26.60
2023-05-14T19:52:34.531Z,26.60
2023-05-14T19:54:43.617Z,26.60
2023-05-14T19:56:51.132Z,26.60
2023-05-14T19:58:58.337Z,26.60
2023-05-14T20:01:05.385Z,26.60
2023-05-14T20:03:12.420Z,26.60
2023-05-14T20:05:19.872Z,26.60
2023-05-14T20:07:27.004Z,26.50
2023-05-14T20:09:34.037Z,26.50
2023-05-14T20:11:42.708Z,26.50
2023-05-14T20:13:49.842Z,26.60
2023-05-14T20:15:56.968Z,26.60
2023-05-14T20:18:04.132Z,26.60
2023-05-14T20:20:13.121Z,26.60
2023-05-14T20:22:20.271Z,26.70
2023-05-14T20:24:27.070Z,26.60
2023-05-14T20:26:34.150Z,26.50
2023-05-14T20:28:44.464Z,26.50
2023-05-14T20:30:51.620Z,26.50
2023-05-14T20:32:58.556Z,26.40
2023-05-14T20:35:06.152Z,26.50
2023-05-14T20:37:12.925Z,26.50
2023-05-14T20:39:20.164Z,26.40
2023-05-14T20:41:27.286Z,26.40
2023-05-14T20:43:34.424Z,26.40
2023-05-14T20:45:43.032Z,26.40
2023-05-14T20:47:50.353Z,26.40
2023-05-14T20:49:57.100Z,26.40
2023-05-14T20:52:04.173Z,26.40
2023-05-14T20:54:10.945Z,26.50
2023-05-14T20:56:18.123Z,26.50
2023-05-14T20:58:25.414Z,26.60
2023-05-14T21:00:32.758Z,26.60
2023-05-14T21:02:41.803Z,26.50
2023-05-14T21:04:49.140Z,26.60
2023-05-14T21:06:56.132Z,26.60
2023-05-14T21:09:03.415Z,26.60
2023-05-14T21:11:10.338Z,26.60
2023-05-14T21:13:17.573Z,26.60
2023-05-14T21:15:24.524Z,26.60
2023-05-14T21:17:31.542Z,26.60
2023-05-14T21:19:40.139Z,26.60
2023-05-14T21:21:48.347Z,26.50
2023-05-14T21:23:55.167Z,26.50
2023-05-14T21:26:02.358Z,26.60
2023-05-14T21:28:09.263Z,26.50
2023-05-14T21:30:17.327Z,26.60
2023-05-14T21:32:24.854Z,26.50
2023-05-14T21:34:32.158Z,26.50
2023-05-14T21:36:40.820Z,26.50
2023-05-14T21:38:47.852Z,26.40
2023-05-14T21:40:54.670Z,26.50
2023-05-14T21:43:01.654Z,26.50
2023-05-14T21:45:09.647Z,26.50
2023-05-14T21:47:16.831Z,26.60
2023-05-14T21:49:23.759Z,26.50
2023-05-14T21:51:30.833Z,26.60
2023-05-14T21:53:39.455Z,26.60
2023-05-14T21:55:46.703Z,26.60
2023-05-14T21:57:53.607Z,26.60
2023-05-14T22:00:00.900Z,26.60
2023-05-14T22:02:08.322Z,26.60
2023-05-14T22:04:16.071Z,26.60
2023-05-14T22:06:23.105Z,26.60
2023-05-14T22:08:31.770Z,26.60
2023-05-14T22:10:40.857Z,26.60
2023-05-14T22:12:48.279Z,26.60
2023-05-14T22:14:55.315Z,26.60
2023-05-14T22:17:02.137Z,26.50
2023-05-14T22:19:09.290Z,26.60
2023-05-14T22:21:16.137Z,26.50
2023-05-14T22:23:23.424Z,26.60
2023-05-14T22:25:30.402Z,26.60
2023-05-14T22:27:39.325Z,26.60
2023-05-14T22:29:46.248Z,26.60
2023-05-14T22:31:53.380Z,26.50
2023-05-14T22:34:00.083Z,26.50
2023-05-14T22:36:08.017Z,26.50
2023-05-14T22:38:15.228Z,26.50
2023-05-14T22:40:22.561Z,26.50
2023-05-14T22:42:29.442Z,26.50
2023-05-14T22:44:38.309Z,26.60
2023-05-14T22:46:45.561Z,26.60
2023-05-14T22:48:52.675Z,26.60
2023-05-14T22:50:59.551Z,26.60
2023-05-14T22:53:06.734Z,26.60
2023-05-14T22:55:13.918Z,26.60
2023-05-14T22:57:21.358Z,26.60
2023-05-14T22:59:28.279Z,26.60
2023-05-14T23:01:37.136Z,26.60
2023-05-14T23:03:43.868Z,26.60
2023-05-14T23:05:52.898Z,26.60
2023-05-14T23:08:00.099Z,26.60
2023-05-14T23:10:07.474Z,26.50
2023-05-14T23:12:14.341Z,26.60
2023-05-14T23:14:21.265Z,26.60
2023-05-14T23:16:28.237Z,26.60
2023-05-14T23:18:37.431Z,26.60
2023-05-14T23:20:44.792Z,26.70
2023-05-14T23:22:51.829Z,26.70
2023-05-14T23:24:58.653Z,26.70
2023-05-14T23:27:05.703Z,26.80
2023-05-14T23:29:12.453Z,26.80
2023-05-14T23:31:19.499Z,26.80
2023-05-14T23:33:26.250Z,26.80
2023-05-14T23:35:35.173Z,26.90
2023-05-14T23:37:47.887Z,26.90
2023-05-14T23:39:55.071Z,27.00
2023-05-14T23:42:01.946Z,27.10
2023-05-14T23:44:09.171Z,27.10
2023-05-14T23:46:16.134Z,27.30
2023-05-14T23:48:23.279Z,27.40
2023-05-14T23:50:30.255Z,27.40
2023-05-14T23:52:39.124Z,27.50
2023-05-14T23:54:45.896Z,27.50
2023-05-14T23:56:53.441Z,27.50
2023-05-14T23:59:00.267Z,27.50
